Time;durP1;ratioP1;P1;durP2;ratioP2;P2;SDS_P1;SDS_P2;PMS_P1;PMS_P2;Temp;Humidity;BMP_temperature;BMP_pressure;BME280_temperature;BME280_humidity;BME280_pressure;Samples;Min_cycle;Max_cycle;Signal;HPM_P1;HPM_P2
2021/09/04 00:00:30;;;;;;;22.47;15.80;;;15.20;99.90;;;;;;5053801;23;20245;-88
2021/09/04 00:02:57;;;;;;;21.97;15.13;;;15.10;99.90;;;;;;5052976;28;20231;-86
2021/09/04 00:05:24;;;;;;;22.87;15.50;;;15.20;99.90;;;;;;5053835;28;20198;-85
2021/09/04 00:07:50;;;;;;;22.90;15.33;;;15.20;99.90;;;;;;5053319;28;20220;-85
2021/09/04 00:10:17;;;;;;;22.97;14.53;;;15.30;99.90;;;;;;5054108;28;20213;-86
2021/09/04 00:12:46;;;;;;;21.53;14.90;;;15.30;99.90;;;;;;5053687;28;20201;-85
2021/09/04 00:15:13;;;;;;;23.17;14.97;;;15.20;99.90;;;;;;5052635;28;20609;-86
2021/09/04 00:17:39;;;;;;;23.40;15.80;;;15.20;99.90;;;;;;5051932;28;20504;-86
2021/09/04 00:20:07;;;;;;;25.57;15.27;;;15.20;99.90;;;;;;5052972;28;20217;-87
2021/09/04 00:22:34;;;;;;;23.30;14.97;;;15.30;99.90;;;;;;5053445;28;20606;-88
2021/09/04 00:25:01;;;;;;;23.03;15.00;;;15.30;99.90;;;;;;5053126;28;20194;-88
2021/09/04 00:27:28;;;;;;;21.60;15.17;;;15.20;99.90;;;;;;5052845;28;20201;-89
2021/09/04 00:29:56;;;;;;;19.53;14.93;;;15.20;99.90;;;;;;5032958;28;20215;-83
2021/09/04 00:32:23;;;;;;;25.10;14.93;;;15.20;99.90;;;;;;5033139;28;20881;-88
2021/09/04 00:34:51;;;;;;;23.43;14.83;;;15.20;99.90;;;;;;5032488;28;20506;-87
2021/09/04 00:37:18;;;;;;;20.23;14.97;;;15.20;99.90;;;;;;5052185;28;20257;-84
2021/09/04 00:39:45;;;;;;;23.93;14.80;;;15.20;99.90;;;;;;5051782;28;20217;-85
2021/09/04 00:42:12;;;;;;;19.53;14.23;;;15.20;99.90;;;;;;5043264;28;20218;-84
2021/09/04 00:44:39;;;;;;;23.63;15.50;;;15.20;99.90;;;;;;5028783;28;20203;-86
2021/09/04 00:47:08;;;;;;;21.77;15.30;;;15.20;99.90;;;;;;5036503;28;20214;-84
2021/09/04 00:49:36;;;;;;;21.67;15.30;;;15.20;99.90;;;;;;5053514;28;20194;-85
2021/09/04 00:52:05;;;;;;;19.30;14.60;;;15.20;99.90;;;;;;5053953;28;20218;-85
2021/09/04 00:54:31;;;;;;;23.30;14.77;;;15.20;99.90;;;;;;5053800;28;20773;-82
2021/09/04 00:56:59;;;;;;;19.60;14.33;;;15.20;99.90;;;;;;5053121;28;20226;-85
2021/09/04 00:59:27;;;;;;;18.63;13.30;;;15.30;99.90;;;;;;5057352;28;20327;-83
2021/09/04 01:01:54;;;;;;;22.30;14.40;;;15.20;99.90;;;;;;5072902;28;20193;-84
2021/09/04 01:04:22;;;;;;;20.98;14.05;;;15.30;99.90;;;;;;5072463;28;20213;-85
2021/09/04 01:06:49;;;;;;;20.57;14.03;;;15.30;99.90;;;;;;5071801;28;20245;-84
2021/09/04 01:09:16;;;;;;;17.70;13.63;;;15.30;99.90;;;;;;5072016;28;20205;-83
2021/09/04 01:11:43;;;;;;;18.03;14.40;;;15.30;99.90;;;;;;5072470;28;20720;-86
2021/09/04 01:14:10;;;;;;;23.38;13.23;;;15.30;99.90;;;;;;5071880;28;20212;-84
2021/09/04 01:16:38;;;;;;;15.60;12.68;;;15.30;99.90;;;;;;5072544;28;20232;-85
2021/09/04 01:19:05;;;;;;;18.10;12.43;;;15.30;99.90;;;;;;5073159;28;20229;-85
2021/09/04 01:21:34;;;;;;;17.50;12.27;;;15.20;99.90;;;;;;5073285;28;20232;-86
2021/09/04 01:24:01;;;;;;;19.25;12.25;;;15.20;99.90;;;;;;5073869;28;20204;-86
2021/09/04 01:26:30;;;;;;;19.53;12.33;;;15.20;99.90;;;;;;5073888;28;20593;-86
2021/09/04 01:28:57;;;;;;;17.90;12.87;;;15.20;99.90;;;;;;5086887;28;20200;-86
2021/09/04 01:31:24;;;;;;;20.60;13.37;;;15.20;99.90;;;;;;5094951;28;20197;-86
2021/09/04 01:33:51;;;;;;;16.83;12.33;;;15.20;99.90;;;;;;5094705;28;20208;-86
2021/09/04 01:36:28;;;;;;;19.47;13.07;;;15.20;99.90;;;;;;5094270;28;20220;-85
2021/09/04 01:38:55;;;;;;;16.83;11.70;;;15.20;99.90;;;;;;5094026;28;20238;-87
2021/09/04 01:41:22;;;;;;;20.07;13.77;;;15.20;99.90;;;;;;5101981;28;20212;-86
2021/09/04 01:43:50;;;;;;;21.47;12.73;;;15.20;99.90;;;;;;5108537;27;20192;-85
2021/09/04 01:46:17;;;;;;;21.20;13.25;;;15.20;99.90;;;;;;5084461;28;20526;-86
2021/09/04 01:48:44;;;;;;;17.50;12.80;;;15.20;99.90;;;;;;5065818;28;20205;-86
2021/09/04 01:51:11;;;;;;;18.77;12.80;;;15.20;99.90;;;;;;5071179;28;20834;-84
2021/09/04 01:53:38;;;;;;;18.17;12.52;;;15.20;99.90;;;;;;5095992;28;20200;-82
2021/09/04 01:56:05;;;;;;;17.90;12.70;;;15.20;99.90;;;;;;5092485;28;20224;-86
2021/09/04 01:58:32;;;;;;;17.35;12.73;;;15.20;99.90;;;;;;5072049;28;20217;-84
2021/09/04 02:01:00;;;;;;;20.77;12.67;;;15.20;99.90;;;;;;5070815;28;20232;-85
2021/09/04 02:03:27;;;;;;;18.13;12.27;;;15.10;99.90;;;;;;5074797;28;20212;-85
2021/09/04 02:05:54;;;;;;;15.10;11.60;;;15.20;99.90;;;;;;5071980;28;20249;-84
2021/09/04 02:08:20;;;;;;;16.27;11.57;;;15.10;99.90;;;;;;5072769;28;20201;-85
2021/09/04 02:10:47;;;;;;;20.83;12.70;;;15.10;99.90;;;;;;5072188;28;20198;-85
2021/09/04 02:13:14;;;;;;;13.50;10.87;;;15.10;99.90;;;;;;5071982;28;20593;-84
2021/09/04 02:15:41;;;;;;;19.27;12.57;;;15.20;99.90;;;;;;5071878;28;20201;-83
2021/09/04 02:18:09;;;;;;;15.67;11.70;;;15.20;99.90;;;;;;5071252;28;20204;-82
2021/09/04 02:20:36;;;;;;;19.47;12.57;;;15.20;99.90;;;;;;5070099;28;20201;-87
2021/09/04 02:23:03;;;;;;;18.27;12.23;;;15.10;99.90;;;;;;5070162;28;20217;-84
2021/09/04 02:25:30;;;;;;;19.10;12.47;;;15.10;99.90;;;;;;5070384;28;20204;-84
2021/09/04 02:27:56;;;;;;;16.27;12.33;;;15.20;99.90;;;;;;5071194;28;20202;-84
2021/09/04 02:30:23;;;;;;;17.13;12.60;;;15.10;99.90;;;;;;5070336;28;20224;-86
2021/09/04 02:32:50;;;;;;;18.13;11.97;;;15.10;99.90;;;;;;5050158;28;20196;-86
2021/09/04 02:35:18;;;;;;;20.63;13.47;;;15.10;99.90;;;;;;5050621;28;20202;-84
2021/09/04 02:37:45;;;;;;;15.20;11.13;;;15.10;99.90;;;;;;5049477;28;20222;-85
2021/09/04 02:40:12;;;;;;;14.25;11.57;;;15.10;99.90;;;;;;5049489;28;20205;-85
2021/09/04 02:42:39;;;;;;;16.13;11.65;;;15.10;99.90;;;;;;5056735;28;20201;-85
2021/09/04 02:45:07;;;;;;;15.17;11.87;;;15.10;99.90;;;;;;5070239;28;20212;-88
2021/09/04 02:47:35;;;;;;;19.20;12.83;;;15.10;99.90;;;;;;5070268;28;20497;-86
2021/09/04 02:50:02;;;;;;;20.23;12.57;;;15.10;99.90;;;;;;5060396;28;20213;-85
2021/09/04 02:52:30;;;;;;;18.47;12.93;;;15.10;99.90;;;;;;5045972;28;20198;-85
2021/09/04 02:54:57;;;;;;;16.03;12.57;;;15.10;99.90;;;;;;5048618;28;20288;-85
2021/09/04 02:57:24;;;;;;;18.23;12.20;;;15.10;99.90;;;;;;5050495;28;20225;-84
2021/09/04 02:59:50;;;;;;;17.30;12.50;;;15.10;99.90;;;;;;5050534;28;20244;-84
2021/09/04 03:02:17;;;;;;;19.63;13.37;;;15.10;99.90;;;;;;5050520;28;20206;-84
2021/09/04 03:04:44;;;;;;;16.43;11.80;;;15.10;99.90;;;;;;5081350;28;20238;-86
2021/09/04 03:07:11;;;;;;;18.83;11.83;;;15.10;99.90;;;;;;5090789;28;20228;-85
2021/09/04 03:09:39;;;;;;;16.83;11.02;;;15.10;99.90;;;;;;5081122;28;20225;-83
2021/09/04 03:12:06;;;;;;;14.53;11.53;;;15.10;99.90;;;;;;5069597;28;20518;-84
2021/09/04 03:14:33;;;;;;;14.10;10.83;;;15.10;99.90;;;;;;5070282;28;20221;-85
2021/09/04 03:17:00;;;;;;;19.73;12.10;;;15.20;99.90;;;;;;5068995;28;20225;-84
2021/09/04 03:19:27;;;;;;;17.87;11.67;;;15.10;99.90;;;;;;5069586;28;20209;-85
2021/09/04 03:21:54;;;;;;;18.10;11.83;;;15.10;99.90;;;;;;5070282;28;20278;-88
2021/09/04 03:24:21;;;;;;;19.47;12.20;;;15.10;99.90;;;;;;5068190;28;20224;-84
2021/09/04 03:26:49;;;;;;;13.77;11.07;;;15.10;99.90;;;;;;5069856;28;20213;-84
2021/09/04 03:29:17;;;;;;;16.27;11.03;;;15.10;99.90;;;;;;5080237;28;20197;-85
2021/09/04 03:31:44;;;;;;;16.47;11.53;;;15.10;99.90;;;;;;5068175;28;20305;-85
2021/09/04 03:34:11;;;;;;;16.40;11.33;;;15.00;99.90;;;;;;5069028;28;20860;-83
2021/09/04 03:36:37;;;;;;;13.00;10.57;;;15.10;99.90;;;;;;5068955;28;20557;-85
2021/09/04 03:39:04;;;;;;;16.43;10.50;;;15.10;99.90;;;;;;5069577;28;20198;-84
2021/09/04 03:41:31;;;;;;;16.00;11.47;;;15.10;99.90;;;;;;5069878;28;20202;-83
2021/09/04 03:43:59;;;;;;;18.40;11.20;;;15.10;99.90;;;;;;5069447;28;20216;-84
2021/09/04 03:46:26;;;;;;;12.10;9.57;;;15.00;99.90;;;;;;5069064;28;20201;-88
2021/09/04 03:48:53;;;;;;;17.30;10.53;;;15.10;99.90;;;;;;5068967;28;20489;-86
2021/09/04 03:51:20;;;;;;;15.10;10.50;;;15.10;99.90;;;;;;5076931;28;20289;-86
2021/09/04 03:53:47;;;;;;;13.87;9.80;;;15.00;99.90;;;;;;5074248;28;20217;-85
2021/09/04 03:56:14;;;;;;;17.43;10.50;;;15.00;99.90;;;;;;5073741;28;20551;-85
2021/09/04 03:58:40;;;;;;;13.83;10.47;;;15.00;99.90;;;;;;5073365;28;20197;-87
2021/09/04 04:01:09;;;;;;;13.43;9.53;;;15.00;99.90;;;;;;5073093;28;20240;-85
2021/09/04 04:03:35;;;;;;;13.23;9.03;;;15.10;99.90;;;;;;5073630;28;20194;-86
2021/09/04 04:06:02;;;;;;;15.20;10.57;;;15.10;99.90;;;;;;5073404;28;20636;-85
2021/09/04 04:08:29;;;;;;;14.13;9.97;;;15.00;99.90;;;;;;5072615;28;20254;-89
2021/09/04 04:11:05;;;;;;;15.57;9.77;;;15.00;99.90;;;;;;5072660;28;20208;-84
2021/09/04 04:13:31;;;;;;;15.90;9.83;;;15.00;99.90;;;;;;5073164;28;20212;-85
2021/09/04 04:15:58;;;;;;;16.77;9.83;;;15.00;99.90;;;;;;5073164;28;20205;-88
2021/09/04 04:18:26;;;;;;;15.37;9.80;;;15.00;99.90;;;;;;5073507;28;20217;-86
2021/09/04 04:20:53;;;;;;;18.73;9.50;;;15.00;99.90;;;;;;5072699;28;20841;-93
2021/09/04 04:23:20;;;;;;;13.40;8.87;;;15.00;99.90;;;;;;5072987;28;20210;-85
2021/09/04 04:25:47;;;;;;;10.43;8.23;;;15.00;99.90;;;;;;5064862;28;20197;-84
2021/09/04 04:28:14;;;;;;;15.53;9.40;;;15.00;99.90;;;;;;5072855;28;20593;-88
2021/09/04 04:30:41;;;;;;;19.63;10.80;;;14.90;99.90;;;;;;5072894;28;20996;-85
2021/09/04 04:33:07;;;;;;;14.77;9.97;;;15.00;99.90;;;;;;5054341;28;20522;-87
2021/09/04 04:35:36;;;;;;;13.30;8.97;;;15.00;99.90;;;;;;5053739;28;20206;-85
2021/09/04 04:38:03;;;;;;;13.03;9.17;;;15.00;99.90;;;;;;5053089;28;20737;-87
2021/09/04 04:40:30;;;;;;;14.20;8.97;;;15.00;99.90;;;;;;5069907;28;20798;-87
2021/09/04 04:42:57;;;;;;;14.93;10.73;;;15.00;99.90;;;;;;5071035;28;20197;-87
2021/09/04 04:45:25;;;;;;;12.97;9.37;;;15.00;99.90;;;;;;5051647;28;20891;-84
2021/09/04 04:47:51;;;;;;;13.47;9.27;;;15.00;99.90;;;;;;5050882;28;20198;-89
2021/09/04 04:50:19;;;;;;;13.40;8.83;;;15.00;99.90;;;;;;5051641;28;20206;-87
2021/09/04 04:52:47;;;;;;;14.53;9.90;;;14.90;99.90;;;;;;5067813;28;20217;-86
2021/09/04 04:55:14;;;;;;;13.47;9.23;;;15.00;99.90;;;;;;5052220;28;20483;-85
2021/09/04 04:57:41;;;;;;;13.57;9.67;;;14.90;99.90;;;;;;5051860;28;20225;-85
2021/09/04 05:00:09;;;;;;;13.37;9.50;;;14.90;99.90;;;;;;5062515;28;20233;-87
2021/09/04 05:02:36;;;;;;;12.53;8.97;;;14.90;99.90;;;;;;5070776;28;20231;-86
2021/09/04 05:05:03;;;;;;;12.77;9.17;;;14.90;99.90;;;;;;5071951;28;20197;-86
2021/09/04 05:07:30;;;;;;;11.90;8.90;;;14.90;99.90;;;;;;5071702;28;20247;-85
2021/09/04 05:09:58;;;;;;;12.23;8.90;;;14.90;99.90;;;;;;5071473;28;20197;-85
2021/09/04 05:12:25;;;;;;;12.37;9.37;;;14.90;99.90;;;;;;5071567;28;20209;-85
2021/09/04 05:14:51;;;;;;;12.37;8.47;;;14.90;99.90;;;;;;5069008;28;20516;-85
2021/09/04 05:17:18;;;;;;;13.50;8.87;;;14.90;99.90;;;;;;5066882;28;20229;-84
2021/09/04 05:19:45;;;;;;;13.10;9.13;;;14.90;99.90;;;;;;5070921;28;20209;-84
2021/09/04 05:22:12;;;;;;;17.60;9.43;;;15.00;99.90;;;;;;5072536;28;20212;-84
2021/09/04 05:24:38;;;;;;;12.80;9.20;;;15.00;99.90;;;;;;5071431;28;20212;-84
2021/09/04 05:27:07;;;;;;;10.00;8.23;;;15.00;99.90;;;;;;5072257;28;20197;-86
2021/09/04 05:29:34;;;;;;;11.83;8.27;;;15.00;99.90;;;;;;5071889;28;20848;-85
2021/09/04 05:32:01;;;;;;;13.73;9.53;;;15.00;99.90;;;;;;5059463;28;20212;-85
2021/09/04 05:34:28;;;;;;;15.20;9.73;;;15.00;99.90;;;;;;5052286;28;20214;-84
2021/09/04 05:36:55;;;;;;;11.67;8.07;;;15.00;99.90;;;;;;5051686;28;20210;-85
2021/09/04 05:39:22;;;;;;;13.03;9.50;;;15.00;99.90;;;;;;5071626;28;20205;-85
2021/09/04 05:41:49;;;;;;;14.80;10.53;;;15.00;99.90;;;;;;5070844;28;20205;-85
2021/09/04 05:44:17;;;;;;;14.17;9.20;;;15.00;99.90;;;;;;5071356;28;20209;-85
2021/09/04 05:46:44;;;;;;;11.07;8.27;;;15.00;99.90;;;;;;5071228;28;20205;-84
2021/09/04 05:49:10;;;;;;;11.10;8.73;;;15.00;99.90;;;;;;5071679;28;20205;-87
2021/09/04 05:51:37;;;;;;;10.87;8.47;;;15.00;99.90;;;;;;5077826;28;20201;-86
2021/09/04 05:54:04;;;;;;;11.80;9.57;;;15.10;99.90;;;;;;5071319;28;20205;-84
2021/09/04 05:56:31;;;;;;;13.93;9.27;;;15.10;99.90;;;;;;5071728;28;20778;-84
2021/09/04 05:58:58;;;;;;;11.60;8.27;;;15.10;99.90;;;;;;5070949;28;20241;-85
2021/09/04 06:01:26;;;;;;;14.80;9.50;;;15.10;99.90;;;;;;5071650;28;20220;-85
2021/09/04 06:03:53;;;;;;;12.37;8.70;;;15.20;99.90;;;;;;5063712;28;20209;-84
2021/09/04 06:06:19;;;;;;;11.23;8.57;;;15.20;99.90;;;;;;5051200;28;20221;-86
2021/09/04 06:08:46;;;;;;;11.87;8.27;;;15.20;99.90;;;;;;5051189;28;20198;-84
2021/09/04 06:11:13;;;;;;;13.63;9.20;;;15.20;99.90;;;;;;5061136;28;20212;-86
2021/09/04 06:13:40;;;;;;;15.10;9.87;;;15.20;99.90;;;;;;5070719;28;20201;-84
2021/09/04 06:16:07;;;;;;;13.60;9.00;;;15.20;99.90;;;;;;5071203;28;20205;-83
2021/09/04 06:18:35;;;;;;;12.03;9.07;;;15.30;99.90;;;;;;5070736;28;20216;-86
2021/09/04 06:21:02;;;;;;;13.27;8.93;;;15.30;99.90;;;;;;5070328;28;20213;-85
2021/09/04 06:23:28;;;;;;;21.00;9.87;;;15.30;99.90;;;;;;5070232;28;20210;-86
2021/09/04 06:25:55;;;;;;;14.70;9.80;;;15.30;99.90;;;;;;5070759;28;20193;-87
2021/09/04 06:28:22;;;;;;;13.07;9.30;;;15.30;99.90;;;;;;5070703;28;20197;-86
2021/09/04 06:30:49;;;;;;;12.63;9.43;;;15.30;99.90;;;;;;5070740;28;20785;-87
2021/09/04 06:33:16;;;;;;;19.30;10.80;;;15.40;99.90;;;;;;5070914;28;20197;-86
2021/09/04 06:35:44;;;;;;;13.90;10.57;;;15.40;99.90;;;;;;5071440;28;20605;-84
2021/09/04 06:38:11;;;;;;;15.30;9.63;;;15.50;99.90;;;;;;5072210;28;20227;-86
2021/09/04 06:40:38;;;;;;;12.57;10.00;;;15.50;99.90;;;;;;5071613;28;20198;-85
2021/09/04 06:43:05;;;;;;;13.67;10.10;;;15.50;99.90;;;;;;5071460;28;20201;-85
2021/09/04 06:45:32;;;;;;;14.27;10.73;;;15.50;99.90;;;;;;5071610;28;20190;-83
2021/09/04 06:47:59;;;;;;;14.67;10.00;;;15.50;99.90;;;;;;5070968;28;20228;-84
2021/09/04 06:50:26;;;;;;;15.00;11.37;;;15.50;99.90;;;;;;5070999;28;20204;-87
2021/09/04 06:52:54;;;;;;;17.77;11.60;;;15.50;99.90;;;;;;5090772;28;20196;-84
2021/09/04 06:55:21;;;;;;;15.33;11.37;;;15.50;99.90;;;;;;5092692;28;20503;-85
2021/09/04 06:57:48;;;;;;;11.83;9.87;;;15.60;99.90;;;;;;5083313;28;20230;-85
2021/09/04 07:00:16;;;;;;;15.33;10.87;;;15.60;99.90;;;;;;5092562;28;20479;-86
2021/09/04 07:02:43;;;;;;;16.10;10.37;;;15.60;99.90;;;;;;5092415;28;20200;-85
2021/09/04 07:05:10;;;;;;;12.67;10.10;;;15.70;99.90;;;;;;5093139;28;20204;-86
2021/09/04 07:07:37;;;;;;;15.23;9.00;;;15.70;99.90;;;;;;5074843;28;20229;-87
2021/09/04 07:10:06;;;;;;;13.90;9.10;;;15.70;99.90;;;;;;5072111;28;20209;-87
2021/09/04 07:12:33;;;;;;;12.60;9.03;;;15.70;99.90;;;;;;5062641;28;20206;-87
2021/09/04 07:15:00;;;;;;;14.30;8.80;;;15.70;99.90;;;;;;5055632;28;20205;-85
2021/09/04 07:17:26;;;;;;;14.37;8.77;;;15.70;99.90;;;;;;5064733;28;20351;-87
2021/09/04 07:19:53;;;;;;;14.23;9.40;;;15.80;99.90;;;;;;5055172;28;20205;-87
2021/09/04 07:22:20;;;;;;;10.60;7.23;;;15.80;99.90;;;;;;5055640;28;20194;-82
2021/09/04 07:24:47;;;;;;;10.07;7.27;;;15.80;99.90;;;;;;5056492;28;20201;-86
2021/09/04 07:27:15;;;;;;;10.07;7.27;;;15.80;99.90;;;;;;5072958;28;20212;-88
2021/09/04 07:29:42;;;;;;;12.07;8.17;;;15.90;99.90;;;;;;5074324;28;20863;-88
2021/09/04 07:32:09;;;;;;;12.67;7.60;;;15.90;99.90;;;;;;5074497;28;20216;-87
2021/09/04 07:34:36;;;;;;;10.45;7.45;;;16.00;99.90;;;;;;5073830;28;20288;-87
2021/09/04 07:40:38;;;;;;;10.53;7.13;;;16.10;99.90;;;;;;4986940;28;20659;-88
2021/09/04 07:43:08;;;;;;;9.93;7.00;;;16.10;99.90;;;;;;5069093;28;20293;-86
2021/09/04 07:45:35;;;;;;;11.63;8.53;;;16.20;99.90;;;;;;5067959;22;20823;-89
2021/09/04 07:48:02;;;;;;;10.32;8.10;;;16.20;99.90;;;;;;5053623;28;20202;-88
2021/09/04 07:50:29;;;;;;;13.20;9.30;;;16.10;99.90;;;;;;5053563;28;20198;-87
2021/09/04 07:52:56;;;;;;;11.33;8.60;;;16.10;99.90;;;;;;5053667;28;20205;-89
2021/09/04 07:55:23;;;;;;;11.37;8.30;;;16.10;99.90;;;;;;5054367;28;20614;-86
2021/09/04 07:57:49;;;;;;;11.52;8.43;;;16.10;99.90;;;;;;5038266;28;20234;-87
2021/09/04 08:00:18;;;;;;;10.52;8.80;;;16.20;99.90;;;;;;5034110;28;20483;-89
2021/09/04 08:02:45;;;;;;;10.30;8.18;;;16.20;99.90;;;;;;5034896;28;20194;-89
2021/09/04 08:05:12;;;;;;;11.32;8.77;;;16.30;99.90;;;;;;5054087;28;20201;-87
2021/09/04 08:07:39;;;;;;;11.40;9.30;;;16.30;99.90;;;;;;5053397;28;20226;-87
2021/09/04 08:10:07;;;;;;;13.93;10.10;;;16.30;99.90;;;;;;5053753;28;20598;-85
2021/09/04 08:12:34;;;;;;;13.45;9.48;;;16.30;99.90;;;;;;5053780;28;20209;-87
2021/09/04 08:15:08;;;;;;;12.27;9.13;;;16.40;99.90;;;;;;5030420;28;20610;-84
2021/09/04 08:17:36;;;;;;;10.37;8.23;;;16.40;99.90;;;;;;5032413;28;20206;-86
2021/09/04 08:20:04;;;;;;;13.33;8.53;;;16.50;99.90;;;;;;5032258;28;20211;-85
2021/09/04 08:22:31;;;;;;;9.45;7.47;;;16.60;99.90;;;;;;5034362;28;20221;-84
2021/09/04 08:24:58;;;;;;;10.83;7.40;;;16.70;99.90;;;;;;5032368;28;20214;-84
2021/09/04 08:27:25;;;;;;;11.90;7.72;;;16.80;99.90;;;;;;5033525;28;20201;-84
2021/09/04 08:29:52;;;;;;;12.00;8.60;;;16.80;99.90;;;;;;5032136;28;20195;-82
2021/09/04 08:32:18;;;;;;;14.25;8.13;;;17.00;99.90;;;;;;5032456;28;20221;-82
2021/09/04 08:34:47;;;;;;;9.40;6.95;;;17.10;99.90;;;;;;5032666;28;20210;-85
2021/09/04 08:37:13;;;;;;;9.73;7.07;;;17.10;99.90;;;;;;5034846;28;20206;-82
2021/09/04 08:39:40;;;;;;;12.23;7.38;;;17.20;99.90;;;;;;5051333;28;20613;-84
2021/09/04 08:42:07;;;;;;;9.13;7.35;;;17.20;99.90;;;;;;5051485;28;20514;-90
2021/09/04 08:44:34;;;;;;;11.07;7.53;;;17.30;99.90;;;;;;5034295;28;20249;-86
2021/09/04 08:47:01;;;;;;;10.18;6.68;;;17.40;99.90;;;;;;5031812;28;20199;-82
2021/09/04 08:49:28;;;;;;;9.80;7.13;;;17.50;99.90;;;;;;5033456;28;20195;-86
2021/09/04 08:51:57;;;;;;;10.90;7.53;;;17.50;99.90;;;;;;5043357;28;20212;-85
2021/09/04 08:54:23;;;;;;;13.27;7.95;;;17.50;99.90;;;;;;5052883;28;20201;-84
2021/09/04 08:56:50;;;;;;;9.68;6.85;;;17.50;99.90;;;;;;5052266;28;20205;-84
2021/09/04 08:59:17;;;;;;;10.38;6.82;;;17.60;99.90;;;;;;5051909;28;20244;-88
2021/09/04 09:01:45;;;;;;;9.73;7.05;;;17.60;99.90;;;;;;5050204;28;20209;-85
2021/09/04 09:04:16;;;;;;;10.85;7.63;;;17.70;99.90;;;;;;5049913;28;20209;-89
2021/09/04 09:06:44;;;;;;;10.30;7.68;;;17.90;99.90;;;;;;5049392;28;20251;-88
2021/09/04 09:09:20;;;;;;;11.23;7.43;;;17.90;99.90;;;;;;5049359;28;20206;-84
2021/09/04 09:11:48;;;;;;;9.15;7.50;;;17.90;99.90;;;;;;5050586;28;20665;-86
2021/09/04 09:14:15;;;;;;;8.43;6.72;;;18.10;99.90;;;;;;5052186;28;20198;-84
2021/09/04 09:16:51;;;;;;;10.40;6.78;;;18.30;99.90;;;;;;5050892;28;20630;-86
2021/09/04 09:19:20;;;;;;;11.25;7.32;;;18.60;99.90;;;;;;5051975;28;20559;-89
2021/09/04 09:21:47;;;;;;;9.07;7.03;;;18.70;99.90;;;;;;5051605;28;20211;-86
2021/09/04 09:24:16;;;;;;;9.95;6.88;;;18.80;99.90;;;;;;5051648;28;20201;-88
2021/09/04 09:26:49;;;;;;;11.88;7.32;;;18.80;99.90;;;;;;5048588;28;20267;-87
2021/09/04 09:29:22;;;;;;;7.38;6.53;;;18.90;99.90;;;;;;5050988;28;20206;-86
2021/09/04 09:31:49;;;;;;;9.60;7.30;;;18.80;99.90;;;;;;5050428;28;20313;-82
2021/09/04 09:34:17;;;;;;;10.82;6.55;;;18.80;99.90;;;;;;5050312;28;20205;-86
2021/09/04 09:36:48;;;;;;;10.07;7.10;;;18.80;99.90;;;;;;5051429;28;20209;-85
2021/09/04 09:39:15;;;;;;;11.57;7.43;;;18.80;99.90;;;;;;5051887;28;20233;-90
2021/09/04 09:41:51;;;;;;;8.80;7.00;;;18.70;99.90;;;;;;5052194;28;20206;-84
2021/09/04 09:44:19;;;;;;;10.70;7.65;;;18.80;99.90;;;;;;5051905;28;20217;-88
2021/09/04 09:46:51;;;;;;;9.75;6.85;;;18.90;99.90;;;;;;5052089;28;20202;-88
2021/09/04 09:49:18;;;;;;;8.82;6.45;;;19.00;99.90;;;;;;5051260;28;20618;-91
2021/09/04 09:51:46;;;;;;;9.68;7.25;;;18.90;99.90;;;;;;5051209;28;20621;-85
2021/09/04 09:54:13;;;;;;;9.40;7.15;;;18.80;99.90;;;;;;5052011;28;20368;-89
2021/09/04 09:56:40;;;;;;;8.75;7.40;;;19.10;99.90;;;;;;5051760;28;20237;-84
2021/09/04 09:59:12;;;;;;;9.40;7.30;;;19.40;99.90;;;;;;5031020;28;20233;-89
2021/09/04 10:01:43;;;;;;;12.30;7.43;;;19.70;99.90;;;;;;5032303;28;20198;-87
2021/09/04 10:04:11;;;;;;;12.63;7.68;;;20.00;99.90;;;;;;5051368;28;20214;-87
2021/09/04 10:06:39;;;;;;;11.07;8.30;;;20.30;99.90;;;;;;5046383;28;20217;-85
2021/09/04 10:09:06;;;;;;;12.00;8.40;;;20.50;99.90;;;;;;5028048;28;20202;-88
2021/09/04 10:11:37;;;;;;;12.02;8.23;;;20.50;99.90;;;;;;5028015;28;20206;-90
2021/09/04 10:14:05;;;;;;;10.50;7.38;;;20.30;99.90;;;;;;5028891;28;20203;-86
2021/09/04 10:16:34;;;;;;;12.73;7.70;;;20.30;99.90;;;;;;5044520;28;20213;-88
2021/09/04 10:19:02;;;;;;;10.38;7.35;;;20.40;99.90;;;;;;5048286;28;20287;-87
2021/09/04 10:21:38;;;;;;;12.10;6.90;;;20.70;99.90;;;;;;5049633;28;20218;-87
2021/09/04 10:24:06;;;;;;;10.20;7.15;;;20.90;99.90;;;;;;5049366;28;20194;-88
2021/09/04 10:26:34;;;;;;;11.48;7.00;;;20.90;99.90;;;;;;5048581;28;20590;-84
2021/09/04 10:29:13;;;;;;;7.55;6.68;;;20.90;99.90;;;;;;5046968;28;20213;-84
2021/09/04 10:31:56;;;;;;;9.10;7.05;;;20.90;99.90;;;;;;5048905;28;20825;-89
2021/09/04 10:34:29;;;;;;;13.02;7.32;;;20.90;99.90;;;;;;5050255;28;20189;-93
2021/09/04 10:36:58;;;;;;;11.25;7.68;;;20.80;99.90;;;;;;5050326;28;20236;-88
2021/09/04 10:39:45;;;;;;;9.68;8.32;;;20.80;99.90;;;;;;5049307;28;20633;-86
2021/09/04 10:42:12;;;;;;;11.98;7.45;;;20.90;99.90;;;;;;5049673;28;20625;-93
2021/09/04 10:44:41;;;;;;;10.65;8.55;;;20.70;99.90;;;;;;5050283;28;20229;-90
2021/09/04 10:47:10;;;;;;;8.77;7.85;;;20.70;99.90;;;;;;5040138;28;20602;-88
2021/09/04 10:49:41;;;;;;;11.82;7.75;;;20.80;99.90;;;;;;5030611;28;20272;-83
2021/09/04 10:52:08;;;;;;;8.55;7.40;;;20.90;99.90;;;;;;5044554;28;20240;-87
2021/09/04 10:55:00;;;;;;;9.70;7.63;;;21.30;99.90;;;;;;5050691;28;20206;-83
2021/09/04 10:57:27;;;;;;;9.90;7.70;;;21.40;99.90;;;;;;5051579;28;20202;-87
2021/09/04 11:00:03;;;;;;;10.77;8.15;;;21.30;99.90;;;;;;5050520;28;20939;-89
2021/09/04 11:02:42;;;;;;;10.52;7.72;;;21.30;99.90;;;;;;5056279;28;20192;-85
2021/09/04 11:05:27;;;;;;;9.23;7.28;;;21.30;99.90;;;;;;5075145;28;20200;-83
2021/09/04 11:08:00;;;;;;;9.98;7.13;;;21.40;99.90;;;;;;5061253;28;20288;-89
2021/09/04 11:10:27;;;;;;;8.20;6.90;;;21.50;99.90;;;;;;5053724;28;20232;-87
2021/09/04 11:13:27;;;;;;;10.00;7.45;;;21.80;99.90;;;;;;5054034;28;20205;-85
2021/09/04 11:15:54;;;;;;;9.18;7.20;;;21.90;99.90;;;;;;5051363;28;20535;-92
2021/09/04 11:18:42;;;;;;;9.10;6.45;;;21.90;99.90;;;;;;5053638;28;20210;-89
2021/09/04 11:21:11;;;;;;;9.40;6.97;;;22.00;99.90;;;;;;5052407;28;20206;-83
2021/09/04 11:23:44;;;;;;;7.45;6.65;;;22.10;99.90;;;;;;5042482;28;20213;-92
2021/09/04 11:26:11;;;;;;;13.07;7.35;;;22.30;99.90;;;;;;5034364;28;20214;-86
2021/09/04 11:28:38;;;;;;;8.23;6.70;;;22.20;99.90;;;;;;5050667;28;20212;-86
2021/09/04 11:31:05;;;;;;;10.15;7.05;;;22.40;99.90;;;;;;5051358;28;20190;-86
2021/09/04 11:33:33;;;;;;;13.45;7.65;;;22.40;99.90;;;;;;5053203;28;20201;-84
2021/09/04 11:36:00;;;;;;;9.75;7.35;;;22.40;99.90;;;;;;5052530;28;20213;-82
2021/09/04 11:38:27;;;;;;;8.38;7.10;;;22.60;99.90;;;;;;5052836;28;20206;-84
2021/09/04 11:40:54;;;;;;;11.52;7.63;;;22.70;99.90;;;;;;5051798;28;20238;-83
2021/09/04 11:43:26;;;;;;;13.15;7.75;;;22.60;99.90;;;;;;5051588;28;20204;-88
2021/09/04 11:46:00;;;;;;;11.88;8.50;;;22.60;99.90;;;;;;5051570;28;20252;-84
2021/09/04 11:48:27;;;;;;;11.05;7.93;;;22.80;99.90;;;;;;5053452;28;20205;-92
2021/09/04 11:51:04;;;;;;;10.07;7.75;;;22.80;99.90;;;;;;5051523;28;20206;-91
2021/09/04 11:53:31;;;;;;;12.73;8.60;;;23.00;99.90;;;;;;5052484;28;20194;-95
2021/09/04 11:55:58;;;;;;;12.73;8.13;;;23.20;99.90;;;;;;5051994;28;20209;-89
2021/09/04 11:58:27;;;;;;;8.55;7.30;;;22.90;99.90;;;;;;5053506;28;20672;-80
2021/09/04 12:00:54;;;;;;;9.07;7.25;;;22.90;99.90;;;;;;5059332;28;20654;-85
2021/09/04 12:03:27;;;;;;;11.90;8.07;;;22.80;99.90;;;;;;5065821;28;20567;-95
2021/09/04 12:05:55;;;;;;;8.88;7.53;;;22.90;99.90;;;;;;5054115;28;20268;-88
2021/09/04 12:08:25;;;;;;;9.95;7.72;;;23.20;99.90;;;;;;5054595;28;20586;-89
2021/09/04 12:10:53;;;;;;;11.68;8.25;;;23.30;99.90;;;;;;5054086;28;20579;-90
2021/09/04 12:13:21;;;;;;;10.18;7.10;;;23.10;99.90;;;;;;5054298;28;20209;-92
2021/09/04 12:15:52;;;;;;;10.98;7.50;;;22.90;99.90;;;;;;5053576;28;20496;-89
2021/09/04 12:18:27;;;;;;;13.05;7.88;;;22.90;99.90;;;;;;5053415;28;20852;-83
2021/09/04 12:20:56;;;;;;;14.85;7.97;;;22.70;99.90;;;;;;5054037;28;20607;-92
2021/09/04 12:23:25;;;;;;;10.60;7.43;;;22.40;99.90;;;;;;5055009;28;20215;-89
2021/09/04 12:25:53;;;;;;;8.68;7.43;;;22.50;99.90;;;;;;5055500;28;20209;-83
2021/09/04 12:28:25;;;;;;;8.20;6.97;;;22.70;99.90;;;;;;5067133;28;20194;-88
2021/09/04 12:31:05;;;;;;;10.95;7.43;;;22.70;99.90;;;;;;5067325;28;20198;-87
2021/09/04 12:33:32;;;;;;;10.63;8.23;;;22.70;99.90;;;;;;5036988;28;20212;-84
2021/09/04 12:36:04;;;;;;;12.48;7.78;;;22.70;99.90;;;;;;5048469;28;20213;-86
2021/09/04 12:38:32;;;;;;;9.13;7.35;;;22.70;99.90;;;;;;5034830;28;20210;-86
2021/09/04 12:41:10;;;;;;;9.90;7.10;;;22.50;99.90;;;;;;5030217;28;20227;-87
2021/09/04 12:43:52;;;;;;;9.60;7.45;;;22.50;99.90;;;;;;5031333;28;20202;-88